sensor_id;sensor_type;location;lat;lon;timestamp;pressure;altitude;pressure_sealevel;temperature;humidity
34081;BME280;20358;50.272;19.026;2023-04-01T00:04:43;96522.16;;;6.63;60.02
34081;BME280;20358;50.272;19.026;2023-04-01T00:07:53;96518.84;;;6.61;59.88
34081;BME280;20358;50.272;19.026;2023-04-01T00:10:58;96521.84;;;6.57;60.30
34081;BME280;20358;50.272;19.026;2023-04-01T00:14:05;96514.13;;;6.55;59.81
34081;BME280;20358;50.272;19.026;2023-04-01T00:17:12;96509.84;;;6.54;60.91
34081;BME280;20358;50.272;19.026;2023-04-01T00:20:18;96501.69;;;6.48;60.83
34081;BME280;20358;50.272;19.026;2023-04-01T00:23:27;96506.34;;;6.44;60.24
34081;BME280;20358;50.272;19.026;2023-04-01T00:26:33;96515.22;;;6.43;61.12
34081;BME280;20358;50.272;19.026;2023-04-01T00:29:41;96517.09;;;6.41;60.75
34081;BME280;20358;50.272;19.026;2023-04-01T00:32:51;96479.22;;;6.15;61.37
34081;BME280;20358;50.272;19.026;2023-04-01T00:36:05;96504.97;;;6.40;60.91
34081;BME280;20358;50.272;19.026;2023-04-01T00:39:16;96509.16;;;6.52;61.14
34081;BME280;20358;50.272;19.026;2023-04-01T00:42:23;96507.47;;;6.51;60.81
34081;BME280;20358;50.272;19.026;2023-04-01T00:45:33;96510.38;;;6.48;60.87
34081;BME280;20358;50.272;19.026;2023-04-01T00:48:46;96509.16;;;6.52;60.76
34081;BME280;20358;50.272;19.026;2023-04-01T00:52:01;96510.25;;;6.59;61.21
34081;BME280;20358;50.272;19.026;2023-04-01T00:55:15;96500.31;;;6.53;61.26
34081;BME280;20358;50.272;19.026;2023-04-01T00:58:29;96509.28;;;6.51;60.57
34081;BME280;20358;50.272;19.026;2023-04-01T01:01:38;96519.91;;;6.49;61.50
34081;BME280;20358;50.272;19.026;2023-04-01T01:04:45;96514.31;;;6.33;61.59
34081;BME280;20358;50.272;19.026;2023-04-01T01:08:00;96519.13;;;6.28;62.22
34081;BME280;20358;50.272;19.026;2023-04-01T01:11:24;96519.41;;;6.25;62.25
34081;BME280;20358;50.272;19.026;2023-04-01T01:14:54;96513.44;;;6.23;62.55
34081;BME280;20358;50.272;19.026;2023-04-01T01:18:16;96514.03;;;6.27;62.34
34081;BME280;20358;50.272;19.026;2023-04-01T01:21:42;96500.50;;;6.22;61.82
34081;BME280;20358;50.272;19.026;2023-04-01T01:25:18;96511.00;;;6.31;62.26
34081;BME280;20358;50.272;19.026;2023-04-01T01:28:54;96510.06;;;6.32;62.13
34081;BME280;20358;50.272;19.026;2023-04-01T01:32:29;96502.44;;;6.29;62.68
34081;BME280;20358;50.272;19.026;2023-04-01T01:35:54;96492.66;;;6.31;62.53
34081;BME280;20358;50.272;19.026;2023-04-01T01:39:06;96483.16;;;6.30;61.74
34081;BME280;20358;50.272;19.026;2023-04-01T01:42:19;96491.97;;;6.29;62.19
34081;BME280;20358;50.272;19.026;2023-04-01T01:45:33;96497.91;;;6.31;62.60
34081;BME280;20358;50.272;19.026;2023-04-01T01:48:45;96490.84;;;6.22;62.34
34081;BME280;20358;50.272;19.026;2023-04-01T01:51:55;96477.84;;;6.21;62.63
34081;BME280;20358;50.272;19.026;2023-04-01T01:55:21;96495.25;;;6.22;62.76
34081;BME280;20358;50.272;19.026;2023-04-01T01:58:38;96486.13;;;6.16;62.67
34081;BME280;20358;50.272;19.026;2023-04-01T02:01:55;96498.53;;;6.14;62.96
34081;BME280;20358;50.272;19.026;2023-04-01T02:05:05;96504.47;;;6.16;62.40
34081;BME280;20358;50.272;19.026;2023-04-01T02:08:22;96491.88;;;6.10;63.03
34081;BME280;20358;50.272;19.026;2023-04-01T02:11:37;96503.78;;;6.14;63.12
34081;BME280;20358;50.272;19.026;2023-04-01T02:14:52;96502.38;;;6.10;62.99
34081;BME280;20358;50.272;19.026;2023-04-01T02:18:04;96499.31;;;6.05;63.41
34081;BME280;20358;50.272;19.026;2023-04-01T02:21:13;96514.25;;;6.14;63.11
34081;BME280;20358;50.272;19.026;2023-04-01T02:24:27;96507.59;;;6.10;62.92
34081;BME280;20358;50.272;19.026;2023-04-01T02:27:37;96502.66;;;6.07;63.42
34081;BME280;20358;50.272;19.026;2023-04-01T02:30:44;96507.88;;;6.07;63.44
34081;BME280;20358;50.272;19.026;2023-04-01T02:33:54;96514.06;;;6.06;63.20
34081;BME280;20358;50.272;19.026;2023-04-01T02:37:00;96511.72;;;6.03;63.00
34081;BME280;20358;50.272;19.026;2023-04-01T02:40:13;96508.41;;;6.01;63.22
34081;BME280;20358;50.272;19.026;2023-04-01T02:43:19;96522.22;;;6.12;63.85
34081;BME280;20358;50.272;19.026;2023-04-01T02:46:26;96524.06;;;6.22;62.73
34081;BME280;20358;50.272;19.026;2023-04-01T02:49:32;96527.00;;;6.28;63.15
34081;BME280;20358;50.272;19.026;2023-04-01T02:52:38;96535.03;;;6.36;62.51
34081;BME280;20358;50.272;19.026;2023-04-01T02:55:47;96513.88;;;6.28;62.30
34081;BME280;20358;50.272;19.026;2023-04-01T02:58:55;96517.66;;;6.35;62.64
34081;BME280;20358;50.272;19.026;2023-04-01T03:02:01;96534.34;;;6.44;62.53
34081;BME280;20358;50.272;19.026;2023-04-01T03:05:08;96524.72;;;6.44;62.04
34081;BME280;20358;50.272;19.026;2023-04-01T03:08:15;96531.19;;;6.40;62.85
34081;BME280;20358;50.272;19.026;2023-04-01T03:11:24;96520.72;;;6.40;62.00
34081;BME280;20358;50.272;19.026;2023-04-01T03:14:30;96522.06;;;6.35;62.46
34081;BME280;20358;50.272;19.026;2023-04-01T03:17:37;96524.81;;;6.33;62.88
34081;BME280;20358;50.272;19.026;2023-04-01T03:20:44;96518.97;;;6.20;62.57
34081;BME280;20358;50.272;19.026;2023-04-01T03:23:52;96532.66;;;6.33;63.00
34081;BME280;20358;50.272;19.026;2023-04-01T03:27:00;96524.28;;;6.39;62.75
34081;BME280;20358;50.272;19.026;2023-04-01T03:30:07;96530.94;;;6.43;62.66
34081;BME280;20358;50.272;19.026;2023-04-01T03:33:23;96520.88;;;6.48;62.58
34081;BME280;20358;50.272;19.026;2023-04-01T03:36:30;96531.06;;;6.51;62.50
34081;BME280;20358;50.272;19.026;2023-04-01T03:39:35;96534.84;;;6.58;62.37
34081;BME280;20358;50.272;19.026;2023-04-01T03:42:49;96531.53;;;6.56;61.92
34081;BME280;20358;50.272;19.026;2023-04-01T03:45:55;96528.19;;;6.54;61.75
34081;BME280;20358;50.272;19.026;2023-04-01T03:49:05;96532.06;;;6.50;62.71
34081;BME280;20358;50.272;19.026;2023-04-01T03:52:13;96526.66;;;6.42;62.37
34081;BME280;20358;50.272;19.026;2023-04-01T03:55:20;96531.19;;;6.40;62.54
34081;BME280;20358;50.272;19.026;2023-04-01T03:58:29;96519.28;;;6.36;62.50
34081;BME280;20358;50.272;19.026;2023-04-01T04:01:37;96544.13;;;6.32;63.04
34081;BME280;20358;50.272;19.026;2023-04-01T04:04:43;96532.66;;;6.33;62.88
34081;BME280;20358;50.272;19.026;2023-04-01T04:07:51;96526.72;;;6.31;62.93
34081;BME280;20358;50.272;19.026;2023-04-01T04:10:58;96531.19;;;6.40;63.08
34081;BME280;20358;50.272;19.026;2023-04-01T04:14:08;96522.91;;;6.35;62.49
34081;BME280;20358;50.272;19.026;2023-04-01T04:17:13;96530.34;;;6.40;62.23
34081;BME280;20358;50.272;19.026;2023-04-01T04:20:20;96526.22;;;6.37;62.74
34081;BME280;20358;50.272;19.026;2023-04-01T04:23:26;96527.59;;;6.41;63.27
34081;BME280;20358;50.272;19.026;2023-04-01T04:26:33;96524.53;;;6.36;63.06
34081;BME280;20358;50.272;19.026;2023-04-01T04:29:42;96517.88;;;6.23;63.14
34081;BME280;20358;50.272;19.026;2023-04-01T04:32:48;96525.59;;;6.24;63.10
34081;BME280;20358;50.272;19.026;2023-04-01T04:35:56;96523.13;;;6.23;63.58
34081;BME280;20358;50.272;19.026;2023-04-01T04:39:04;96533.63;;;6.23;63.44
34081;BME280;20358;50.272;19.026;2023-04-01T04:42:12;96531.97;;;6.31;63.18
34081;BME280;20358;50.272;19.026;2023-04-01T04:45:23;96521.22;;;6.34;63.56
34081;BME280;20358;50.272;19.026;2023-04-01T04:48:31;96530.94;;;6.43;63.34
34081;BME280;20358;50.272;19.026;2023-04-01T04:51:37;96530.94;;;6.43;62.99
34081;BME280;20358;50.272;19.026;2023-04-01T04:54:44;96531.78;;;6.53;62.77
34081;BME280;20358;50.272;19.026;2023-04-01T04:57:51;96530.81;;;6.54;62.97
34081;BME280;20358;50.272;19.026;2023-04-01T05:01:05;96538.41;;;6.57;62.42
34081;BME280;20358;50.272;19.026;2023-04-01T05:04:14;96530.13;;;6.52;62.44
34081;BME280;20358;50.272;19.026;2023-04-01T05:07:20;96536.47;;;6.59;62.94
34081;BME280;20358;50.272;19.026;2023-04-01T05:10:27;96543.13;;;6.63;62.47
34081;BME280;20358;50.272;19.026;2023-04-01T05:13:34;96535.69;;;6.68;62.25
34081;BME280;20358;50.272;19.026;2023-04-01T05:16:43;96537.91;;;6.73;62.25
34081;BME280;20358;50.272;19.026;2023-04-01T05:19:49;96542.06;;;6.75;62.06
34081;BME280;20358;50.272;19.026;2023-04-01T05:22:56;96541.44;;;6.93;62.66
34081;BME280;20358;50.272;19.026;2023-04-01T05:26:04;96548.22;;;7.05;61.37
34081;BME280;20358;50.272;19.026;2023-04-01T05:29:12;96537.72;;;7.05;61.31
34081;BME280;20358;50.272;19.026;2023-04-01T05:32:24;96551.28;;;7.10;61.30
34081;BME280;20358;50.272;19.026;2023-04-01T05:35:31;96548.22;;;7.05;61.43
34081;BME280;20358;50.272;19.026;2023-04-01T05:38:39;96539.41;;;7.06;61.46
34081;BME280;20358;50.272;19.026;2023-04-01T05:41:47;96549.59;;;7.09;60.94
34081;BME280;20358;50.272;19.026;2023-04-01T05:44:56;96539.09;;;6.99;60.91
34081;BME280;20358;50.272;19.026;2023-04-01T05:48:24;96548.34;;;7.03;61.70
34081;BME280;20358;50.272;19.026;2023-04-01T05:51:30;96543.81;;;7.05;61.24
34081;BME280;20358;50.272;19.026;2023-04-01T05:54:36;96548.22;;;7.05;61.08
34081;BME280;20358;50.272;19.026;2023-04-01T05:57:45;96563.56;;;7.09;61.39
34081;BME280;20358;50.272;19.026;2023-04-01T06:01:00;96553.91;;;7.10;61.39
34081;BME280;20358;50.272;19.026;2023-04-01T06:04:19;96535.09;;;7.05;60.83
34081;BME280;20358;50.272;19.026;2023-04-01T06:07:27;96552.94;;;7.11;61.59
34081;BME280;20358;50.272;19.026;2023-04-01T06:10:51;96558.63;;;7.16;61.67
34081;BME280;20358;50.272;19.026;2023-04-01T06:14:30;96560.94;;;7.19;60.77
34081;BME280;20358;50.272;19.026;2023-04-01T06:18:00;96562.88;;;7.17;60.68
34081;BME280;20358;50.272;19.026;2023-04-01T06:21:41;96563.44;;;7.20;61.06
34081;BME280;20358;50.272;19.026;2023-04-01T06:25:33;96569.78;;;7.37;61.50
34081;BME280;20358;50.272;19.026;2023-04-01T06:33:01;96567.59;;;7.52;60.45
34081;BME280;20358;50.272;19.026;2023-04-01T06:36:48;96564.53;;;7.66;60.47
34081;BME280;20358;50.272;19.026;2023-04-01T06:44:16;96569.22;;;7.81;60.13
34081;BME280;20358;50.272;19.026;2023-04-01T06:48:10;96575.59;;;7.88;59.58
34081;BME280;20358;50.272;19.026;2023-04-01T06:52:24;96566.47;;;8.12;59.98
34081;BME280;20358;50.272;19.026;2023-04-01T06:56:28;96573.47;;;8.30;59.22
34081;BME280;20358;50.272;19.026;2023-04-01T06:59:44;96582.41;;;8.47;59.50
34081;BME280;20358;50.272;19.026;2023-04-01T07:02:59;96583.78;;;8.51;59.30
34081;BME280;20358;50.272;19.026;2023-04-01T07:06:20;96589.06;;;8.41;58.53
34081;BME280;20358;50.272;19.026;2023-04-01T07:09:40;96580.25;;;8.33;59.43
34081;BME280;20358;50.272;19.026;2023-04-01T07:13:14;96575.81;;;8.24;59.47
34081;BME280;20358;50.272;19.026;2023-04-01T07:16:33;96573.88;;;8.26;59.32
34081;BME280;20358;50.272;19.026;2023-04-01T07:19:48;96590.78;;;8.14;59.87
34081;BME280;20358;50.272;19.026;2023-04-01T07:23:04;96589.00;;;8.05;59.85
34081;BME280;20358;50.272;19.026;2023-04-01T07:26:31;96584.84;;;8.12;59.97
34081;BME280;20358;50.272;19.026;2023-04-01T07:29:37;96585.81;;;8.11;60.75
34081;BME280;20358;50.272;19.026;2023-04-01T07:32:49;96587.69;;;8.28;61.26
34081;BME280;20358;50.272;19.026;2023-04-01T07:36:08;96582.47;;;8.18;59.86
34081;BME280;20358;50.272;19.026;2023-04-01T07:39:34;96589.53;;;8.18;60.20
34081;BME280;20358;50.272;19.026;2023-04-01T07:47:07;96601.88;;;7.79;62.65
34081;BME280;20358;50.272;19.026;2023-04-01T07:50:29;96604.34;;;7.71;63.20
34081;BME280;20358;50.272;19.026;2023-04-01T07:53:45;96609.91;;;7.68;63.09
34081;BME280;20358;50.272;19.026;2023-04-01T07:57:03;96610.88;;;7.67;62.78
34081;BME280;20358;50.272;19.026;2023-04-01T08:00:35;96610.31;;;7.82;63.53
34081;BME280;20358;50.272;19.026;2023-04-01T08:04:37;96605.59;;;8.05;63.31
34081;BME280;20358;50.272;19.026;2023-04-01T08:08:06;96604.34;;;8.19;61.78
34081;BME280;20358;50.272;19.026;2023-04-01T08:12:23;96612.34;;;8.27;61.96
34081;BME280;20358;50.272;19.026;2023-04-01T08:16:38;96610.41;;;8.29;62.09
34081;BME280;20358;50.272;19.026;2023-04-01T08:20:14;96605.81;;;8.31;62.03
34081;BME280;20358;50.272;19.026;2023-04-01T08:23:33;96619.22;;;8.47;61.39
34081;BME280;20358;50.272;19.026;2023-04-01T08:26:54;96612.81;;;8.59;61.03
34081;BME280;20358;50.272;19.026;2023-04-01T08:30:16;96624.16;;;8.59;60.91
34081;BME280;20358;50.272;19.026;2023-04-01T08:33:29;96608.41;;;8.50;61.38
34081;BME280;20358;50.272;19.026;2023-04-01T08:36:45;96619.50;;;8.44;60.72
34081;BME280;20358;50.272;19.026;2023-04-01T08:40:02;;;;8.49;
34081;BME280;20358;50.272;19.026;2023-04-01T08:44:24;96622.41;;;8.50;62.73
34081;BME280;20358;50.272;19.026;2023-04-01T08:48:19;96635.28;;;8.44;61.34
34081;BME280;20358;50.272;19.026;2023-04-01T08:52:06;96627.22;;;8.55;62.61
34081;BME280;20358;50.272;19.026;2023-04-01T08:55:34;96610.94;;;8.42;61.81
34081;BME280;20358;50.272;19.026;2023-04-01T08:59:12;96623.38;;;8.49;62.62
34081;BME280;20358;50.272;19.026;2023-04-01T09:02:56;96617.66;;;8.54;63.09
34081;BME280;20358;50.272;19.026;2023-04-01T09:06:32;96637.47;;;8.58;63.82
34081;BME280;20358;50.272;19.026;2023-04-01T09:10:24;96621.97;;;8.55;64.10
34081;BME280;20358;50.272;19.026;2023-04-01T09:14:30;96619.34;;;8.55;64.87
34081;BME280;20358;50.272;19.026;2023-04-01T09:22:21;96621.00;;;8.56;64.38
34081;BME280;20358;50.272;19.026;2023-04-01T09:25:45;96613.06;;;8.66;64.27
34081;BME280;20358;50.272;19.026;2023-04-01T09:29:10;96616.19;;;8.79;63.03
34081;BME280;20358;50.272;19.026;2023-04-01T09:36:44;96538.50;;;8.11;64.36
34081;BME280;20358;50.272;19.026;2023-04-01T09:40:16;96634.19;;;8.37;65.55
34081;BME280;20358;50.272;19.026;2023-04-01T09:43:55;96629.09;;;8.26;66.45
34081;BME280;20358;50.272;19.026;2023-04-01T09:47:38;96621.53;;;8.04;67.23
34081;BME280;20358;50.272;19.026;2023-04-01T09:51:05;96630.94;;;7.96;68.16
34081;BME280;20358;50.272;19.026;2023-04-01T09:54:36;96624.97;;;8.14;68.08
34081;BME280;20358;50.272;19.026;2023-04-01T09:58:46;96622.91;;;8.08;66.51
34081;BME280;20358;50.272;19.026;2023-04-01T10:03:41;96640.44;;;7.97;66.29
34081;BME280;20358;50.272;19.026;2023-04-01T10:15:42;96626.06;;;7.82;66.01
34081;BME280;20358;50.272;19.026;2023-04-01T10:19:49;96627.59;;;8.14;65.13
34081;BME280;20358;50.272;19.026;2023-04-01T10:23:22;96625.94;;;8.22;64.43
34081;BME280;20358;50.272;19.026;2023-04-01T10:31:58;96640.88;;;8.03;65.73
34081;BME280;20358;50.272;19.026;2023-04-01T10:35:53;96634.81;;;8.02;65.15
34081;BME280;20358;50.272;19.026;2023-04-01T10:53:13;96643.06;;;8.26;67.42
34081;BME280;20358;50.272;19.026;2023-04-01T10:56:56;96641.69;;;8.32;66.82
34081;BME280;20358;50.272;19.026;2023-04-01T11:01:01;96644.16;;;8.43;66.02
34081;BME280;20358;50.272;19.026;2023-04-01T11:13:58;96647.75;;;8.42;62.44
34081;BME280;20358;50.272;19.026;2023-04-01T11:18:04;96636.75;;;8.66;62.26
34081;BME280;20358;50.272;19.026;2023-04-01T11:21:58;96625.88;;;8.51;61.98
34081;BME280;20358;50.272;19.026;2023-04-01T11:30:33;96625.50;;;8.73;61.05
34081;BME280;20358;50.272;19.026;2023-04-01T11:34:09;96635.97;;;8.92;60.25
34081;BME280;20358;50.272;19.026;2023-04-01T11:37:41;96634.50;;;9.07;58.75
34081;BME280;20358;50.272;19.026;2023-04-01T11:41:33;96630.81;;;9.28;57.82
34081;BME280;20358;50.272;19.026;2023-04-01T11:45:16;96629.59;;;9.40;59.09
34081;BME280;20358;50.272;19.026;2023-04-01T11:48:49;96630.06;;;9.53;57.65
34081;BME280;20358;50.272;19.026;2023-04-01T11:52:17;96631.13;;;9.42;57.43
34081;BME280;20358;50.272;19.026;2023-04-01T11:55:50;96630.53;;;9.66;58.23
34081;BME280;20358;50.272;19.026;2023-04-01T12:07:15;96628.31;;;9.26;59.15
34081;BME280;20358;50.272;19.026;2023-04-01T12:10:42;96637.78;;;9.19;59.92
34081;BME280;20358;50.272;19.026;2023-04-01T12:14:03;96634.84;;;9.22;60.17
34081;BME280;20358;50.272;19.026;2023-04-01T12:17:30;96642.22;;;9.18;60.75
34081;BME280;20358;50.272;19.026;2023-04-01T12:20:50;96651.34;;;9.14;61.04
34081;BME280;20358;50.272;19.026;2023-04-01T12:28:10;96653.59;;;9.09;61.03
34081;BME280;20358;50.272;19.026;2023-04-01T12:31:35;96649.56;;;9.15;60.55
34081;BME280;20358;50.272;19.026;2023-04-01T12:35:12;96644.16;;;9.16;60.50
34081;BME280;20358;50.272;19.026;2023-04-01T12:38:36;96641.09;;;9.11;59.78
34081;BME280;20358;50.272;19.026;2023-04-01T12:42:04;96651.09;;;9.17;58.90
34081;BME280;20358;50.272;19.026;2023-04-01T12:45:28;96657.44;;;9.25;59.10
34081;BME280;20358;50.272;19.026;2023-04-01T12:52:51;96665.31;;;9.52;57.22
34081;BME280;20358;50.272;19.026;2023-04-01T12:56:14;96652.69;;;9.73;56.37
34081;BME280;20358;50.272;19.026;2023-04-01T12:59:58;96652.06;;;9.79;55.99
34081;BME280;20358;50.272;19.026;2023-04-01T13:03:43;96648.59;;;9.61;55.26
34081;BME280;20358;50.272;19.026;2023-04-01T13:07:37;96658.69;;;9.48;55.42
34081;BME280;20358;50.272;19.026;2023-04-01T13:11:09;96669.09;;;9.67;55.52
34081;BME280;20358;50.272;19.026;2023-04-01T13:14:49;96667.50;;;9.74;55.51
34081;BME280;20358;50.272;19.026;2023-04-01T13:18:21;96672.41;;;9.69;55.64
34081;BME280;20358;50.272;19.026;2023-04-01T13:21:50;96666.59;;;9.65;55.53
34081;BME280;20358;50.272;19.026;2023-04-01T13:25:09;96662.63;;;9.79;55.56
34081;BME280;20358;50.272;19.026;2023-04-01T13:28:29;96661.78;;;9.78;55.83
34081;BME280;20358;50.272;19.026;2023-04-01T13:31:56;96673.16;;;9.79;55.22
34081;BME280;20358;50.272;19.026;2023-04-01T13:35:29;96676.47;;;9.81;55.67
34081;BME280;20358;50.272;19.026;2023-04-01T13:38:57;96675.81;;;9.79;56.20
34081;BME280;20358;50.272;19.026;2023-04-01T13:42:28;96670.75;;;10.03;55.80
34081;BME280;20358;50.272;19.026;2023-04-01T13:49:41;96687.41;;;9.86;54.77
34081;BME280;20358;50.272;19.026;2023-04-01T13:53:39;96690.66;;;9.35;59.13
34081;BME280;20358;50.272;19.026;2023-04-01T13:57:17;96698.91;;;8.76;63.60
34081;BME280;20358;50.272;19.026;2023-04-01T14:00:42;96677.25;;;8.36;65.85
34081;BME280;20358;50.272;19.026;2023-04-01T14:04:32;96702.31;;;8.21;67.45
34081;BME280;20358;50.272;19.026;2023-04-01T14:08:00;96712.16;;;8.09;68.60
34081;BME280;20358;50.272;19.026;2023-04-01T14:11:25;96704.53;;;7.96;68.84
34081;BME280;20358;50.272;19.026;2023-04-01T14:14:58;96687.34;;;7.92;68.17
34081;BME280;20358;50.272;19.026;2023-04-01T14:18:52;96713.78;;;8.00;67.49
34081;BME280;20358;50.272;19.026;2023-04-01T14:22:28;96705.38;;;8.07;67.88
34081;BME280;20358;50.272;19.026;2023-04-01T14:29:48;96706.47;;;8.33;66.88
34081;BME280;20358;50.272;19.026;2023-04-01T14:33:21;96710.19;;;8.40;65.80
34081;BME280;20358;50.272;19.026;2023-04-01T14:36:58;96716.41;;;8.48;66.31
34081;BME280;20358;50.272;19.026;2023-04-01T14:40:27;96731.59;;;8.64;65.46
34081;BME280;20358;50.272;19.026;2023-04-01T14:44:11;96742.16;;;8.45;63.51
34081;BME280;20358;50.272;19.026;2023-04-01T14:47:49;96731.66;;;8.26;64.82
34081;BME280;20358;50.272;19.026;2023-04-01T14:51:04;96737.34;;;8.12;66.69
34081;BME280;20358;50.272;19.026;2023-04-01T14:54:21;96723.94;;;8.15;66.73
34081;BME280;20358;50.272;19.026;2023-04-01T14:57:37;96725.28;;;8.19;66.43
34081;BME280;20358;50.272;19.026;2023-04-01T15:00:58;96729.19;;;8.15;66.86
34081;BME280;20358;50.272;19.026;2023-04-01T15:04:47;96730.28;;;8.22;65.67
34081;BME280;20358;50.272;19.026;2023-04-01T15:08:10;96734.53;;;8.23;66.62
34081;BME280;20358;50.272;19.026;2023-04-01T15:11:32;96736.22;;;8.14;66.01
34081;BME280;20358;50.272;19.026;2023-04-01T15:15:13;96738.44;;;8.09;65.68
34081;BME280;20358;50.272;19.026;2023-04-01T15:18:44;96735.50;;;7.93;66.52
34081;BME280;20358;50.272;19.026;2023-04-01T15:22:32;96754.28;;;7.79;66.80
34081;BME280;20358;50.272;19.026;2023-04-01T15:26:11;96749.69;;;7.71;68.68
34081;BME280;20358;50.272;19.026;2023-04-01T15:29:43;96744.00;;;7.47;69.20
34081;BME280;20358;50.272;19.026;2023-04-01T15:33:42;96752.56;;;7.49;69.07
34081;BME280;20358;50.272;19.026;2023-04-01T15:37:04;96743.38;;;7.34;69.38
34081;BME280;20358;50.272;19.026;2023-04-01T15:40:27;96762.72;;;7.33;67.71
34081;BME280;20358;50.272;19.026;2023-04-01T15:43:41;96758.66;;;7.19;69.18
34081;BME280;20358;50.272;19.026;2023-04-01T15:46:52;96764.44;;;7.13;68.46
34081;BME280;20358;50.272;19.026;2023-04-01T15:50:34;96754.06;;;7.12;68.07
34081;BME280;20358;50.272;19.026;2023-04-01T15:58:17;96775.94;;;7.22;68.16
34081;BME280;20358;50.272;19.026;2023-04-01T16:01:46;96776.19;;;7.19;69.54
34081;BME280;20358;50.272;19.026;2023-04-01T16:09:00;96773.56;;;6.89;69.25
34081;BME280;20358;50.272;19.026;2023-04-01T16:12:18;96786.94;;;6.86;69.61
34081;BME280;20358;50.272;19.026;2023-04-01T16:15:39;96794.50;;;6.79;69.64
34081;BME280;20358;50.272;19.026;2023-04-01T16:19:13;96801.56;;;6.67;70.68
34081;BME280;20358;50.272;19.026;2023-04-01T16:22:38;96785.25;;;6.64;71.73
34081;BME280;20358;50.272;19.026;2023-04-01T16:26:01;96784.81;;;6.38;71.38
34081;BME280;20358;50.272;19.026;2023-04-01T16:29:20;96792.59;;;6.49;72.22
34081;BME280;20358;50.272;19.026;2023-04-01T16:32:45;96792.09;;;6.55;71.69
34081;BME280;20358;50.272;19.026;2023-04-01T16:36:09;96789.16;;;6.69;71.07
34081;BME280;20358;50.272;19.026;2023-04-01T16:39:29;96787.94;;;6.73;71.45
34081;BME280;20358;50.272;19.026;2023-04-01T16:42:50;96805.09;;;6.77;70.63
34081;BME280;20358;50.272;19.026;2023-04-01T16:46:27;96814.88;;;6.75;70.09
34081;BME280;20358;50.272;19.026;2023-04-01T16:49:41;96821.81;;;6.77;70.26
34081;BME280;20358;50.272;19.026;2023-04-01T16:53:02;96832.06;;;6.80;69.75
34081;BME280;20358;50.272;19.026;2023-04-01T16:56:22;96824.41;;;6.88;69.90
34081;BME280;20358;50.272;19.026;2023-04-01T16:59:35;96844.91;;;7.03;69.07
34081;BME280;20358;50.272;19.026;2023-04-01T17:02:49;96845.19;;;7.00;69.76
34081;BME280;20358;50.272;19.026;2023-04-01T17:06:18;96841.59;;;7.01;69.83
34081;BME280;20358;50.272;19.026;2023-04-01T17:09:56;96861.00;;;7.10;69.41
34081;BME280;20358;50.272;19.026;2023-04-01T17:13:33;96845.81;;;7.13;69.08
34081;BME280;20358;50.272;19.026;2023-04-01T17:17:00;96862.97;;;7.17;67.87
34081;BME280;20358;50.272;19.026;2023-04-01T17:20:43;96871.94;;;7.15;67.88
34081;BME280;20358;50.272;19.026;2023-04-01T17:24:14;96877.19;;;7.15;67.84
34081;BME280;20358;50.272;19.026;2023-04-01T17:27:44;96889.72;;;7.11;68.40
34081;BME280;20358;50.272;19.026;2023-04-01T17:31:07;96886.97;;;7.13;68.46
34081;BME280;20358;50.272;19.026;2023-04-01T17:34:41;96892.47;;;7.10;68.28
34081;BME280;20358;50.272;19.026;2023-04-01T17:38:17;96889.47;;;7.14;68.06
34081;BME280;20358;50.272;19.026;2023-04-01T17:41:41;96899.91;;;7.25;68.78
34081;BME280;20358;50.272;19.026;2023-04-01T17:45:00;96905.22;;;7.14;68.20
34081;BME280;20358;50.272;19.026;2023-04-01T17:48:27;96906.84;;;7.06;69.07
34081;BME280;20358;50.272;19.026;2023-04-01T17:51:55;96909.63;;;7.14;68.59
34081;BME280;20358;50.272;19.026;2023-04-01T17:55:43;96915.28;;;7.09;68.06
34081;BME280;20358;50.272;19.026;2023-04-01T17:59:05;96918.28;;;7.05;69.02
34081;BME280;20358;50.272;19.026;2023-04-01T18:02:30;96915.66;;;7.05;68.89
34081;BME280;20358;50.272;19.026;2023-04-01T18:06:03;96925.91;;;7.08;68.55
34081;BME280;20358;50.272;19.026;2023-04-01T18:09:31;96930.63;;;7.14;68.32
34081;BME280;20358;50.272;19.026;2023-04-01T18:16:58;96936.81;;;7.24;68.32
34081;BME280;20358;50.272;19.026;2023-04-01T18:20:31;96937.13;;;7.30;68.36
34081;BME280;20358;50.272;19.026;2023-04-01T18:23:53;96949.34;;;7.41;69.35
34081;BME280;20358;50.272;19.026;2023-04-01T18:27:10;96954.09;;;7.47;68.82
34081;BME280;20358;50.272;19.026;2023-04-01T18:30:29;96950.50;;;7.48;67.96
34081;BME280;20358;50.272;19.026;2023-04-01T18:33:47;96954.91;;;7.48;67.56
34081;BME280;20358;50.272;19.026;2023-04-01T18:37:16;96971.25;;;7.51;67.78
34081;BME280;20358;50.272;19.026;2023-04-01T18:40:32;96962.13;;;7.55;67.85
34081;BME280;20358;50.272;19.026;2023-04-01T18:43:54;96963.81;;;7.56;68.53
34081;BME280;20358;50.272;19.026;2023-04-01T18:47:23;96966.25;;;7.48;67.69
34081;BME280;20358;50.272;19.026;2023-04-01T18:50:41;96977.09;;;7.55;68.39
34081;BME280;20358;50.272;19.026;2023-04-01T18:53:57;96975.56;;;7.52;68.26
34081;BME280;20358;50.272;19.026;2023-04-01T18:57:13;96975.09;;;7.47;69.11
34081;BME280;20358;50.272;19.026;2023-04-01T19:00:26;96980.06;;;7.50;68.41
34081;BME280;20358;50.272;19.026;2023-04-01T19:03:46;96955.88;;;7.26;68.70
34081;BME280;20358;50.272;19.026;2023-04-01T19:07:19;96979.72;;;7.34;69.43
34081;BME280;20358;50.272;19.026;2023-04-01T19:10:58;96991.03;;;7.34;69.83
34081;BME280;20358;50.272;19.026;2023-04-01T19:14:22;96987.16;;;7.29;68.97
34081;BME280;20358;50.272;19.026;2023-04-01T19:17:48;96995.19;;;7.37;70.04
34081;BME280;20358;50.272;19.026;2023-04-01T19:21:11;96996.38;;;7.44;69.58
34081;BME280;20358;50.272;19.026;2023-04-01T19:24:41;96992.22;;;7.42;69.50
34081;BME280;20358;50.272;19.026;2023-04-01T19:28:05;96989.69;;;7.40;68.99
34081;BME280;20358;50.272;19.026;2023-04-01T19:31:44;97003.59;;;7.52;69.50
34081;BME280;20358;50.272;19.026;2023-04-01T19:35:10;97009.41;;;7.55;68.89
34081;BME280;20358;50.272;19.026;2023-04-01T19:38:30;97003.34;;;7.55;67.41
34081;BME280;20358;50.272;19.026;2023-04-01T19:41:49;97010.16;;;7.57;67.97